createdAt,value
2023-04-09T00:00:18.776Z,6.2073
2023-04-09T00:01:22.935Z,6.0710
2023-04-09T00:02:26.905Z,6.9113
2023-04-09T00:03:30.813Z,7.0386
2023-04-09T00:04:34.765Z,5.9898
2023-04-09T00:05:38.627Z,6.3601
2023-04-09T00:06:42.535Z,5.7518
2023-04-09T00:07:46.425Z,6.0498
2023-04-09T00:08:50.813Z,6.5637
2023-04-09T00:09:54.775Z,7.0951
2023-04-09T00:10:58.914Z,6.5561
2023-04-09T00:12:02.899Z,6.3704
2023-04-09T00:13:06.723Z,5.4492
2023-04-09T00:14:10.627Z,6.9473
2023-04-09T00:15:23.996Z,6.7421
2023-04-09T00:16:19.054Z,6.1919
2023-04-09T00:17:22.958Z,7.3322
2023-04-09T00:18:26.836Z,7.4571
2023-04-09T00:19:30.718Z,7.8002
2023-04-09T00:20:34.617Z,7.1705
2023-04-09T00:21:38.850Z,6.6713
2023-04-09T00:22:42.746Z,7.3170
2023-04-09T00:23:42.942Z,6.5224
2023-04-09T00:24:46.848Z,6.3956
2023-04-09T00:25:50.738Z,6.7577
2023-04-09T00:26:54.639Z,6.1461
2023-04-09T00:27:58.515Z,6.2799
2023-04-09T00:29:02.418Z,6.9311
2023-04-09T00:30:06.308Z,6.7522
2023-04-09T00:31:10.225Z,5.8376
2023-04-09T00:32:14.084Z,6.4326
2023-04-09T00:33:17.990Z,6.4146
2023-04-09T00:34:21.880Z,6.4475
2023-04-09T00:35:25.802Z,7.8236
2023-04-09T00:36:29.900Z,5.9346
2023-04-09T00:37:33.809Z,5.9894
2023-04-09T00:38:37.709Z,6.8600
2023-04-09T00:39:41.668Z,7.4185
2023-04-09T00:40:45.504Z,6.8249
2023-04-09T00:41:49.410Z,8.0667
2023-04-09T00:42:53.297Z,7.1105
2023-04-09T00:43:57.233Z,7.7786
2023-04-09T00:45:01.131Z,7.6729
2023-04-09T00:46:05.046Z,6.4823
2023-04-09T00:47:08.953Z,6.3538
2023-04-09T00:48:12.824Z,6.9145
2023-04-09T00:49:16.728Z,5.9450
2023-04-09T00:50:20.636Z,7.6837
2023-04-09T00:51:24.543Z,6.1479
2023-04-09T00:52:28.414Z,5.9792
2023-04-09T00:53:32.323Z,7.9815
2023-04-09T00:54:36.234Z,6.9298
2023-04-09T00:55:40.141Z,7.6530
2023-04-09T00:56:44.010Z,7.6099
2023-04-09T00:57:47.935Z,7.5385
2023-04-09T00:58:52.377Z,6.6247
2023-04-09T00:59:56.443Z,6.2905
2023-04-09T01:01:00.352Z,6.6198
2023-04-09T01:02:04.276Z,7.3680
2023-04-09T01:03:08.289Z,6.4505
2023-04-09T01:04:12.211Z,7.6305
2023-04-09T01:05:16.112Z,7.6385
2023-04-09T01:06:20.176Z,8.5475
2023-04-09T01:07:24.063Z,8.2715
2023-04-09T01:08:27.965Z,9.3614
2023-04-09T01:09:31.847Z,8.1857
2023-04-09T01:10:35.762Z,7.9541
2023-04-09T01:11:39.642Z,7.6020
2023-04-09T01:12:43.542Z,7.9589
2023-04-09T01:13:47.760Z,7.7004
2023-04-09T01:14:51.659Z,8.1019
2023-04-09T01:15:55.642Z,7.8376
2023-04-09T01:16:59.542Z,8.3978
2023-04-09T01:18:03.489Z,9.7630
2023-04-09T01:19:07.343Z,8.5164
2023-04-09T01:20:11.229Z,7.6484
2023-04-09T01:21:15.355Z,8.4576
2023-04-09T01:22:19.235Z,8.8790
2023-04-09T01:23:23.138Z,8.4403
2023-04-09T01:24:27.249Z,7.4398
2023-04-09T01:25:31.150Z,8.4537
2023-04-09T01:26:35.058Z,7.9865
2023-04-09T01:27:38.968Z,8.8793
2023-04-09T01:28:42.868Z,8.1646
2023-04-09T01:29:46.760Z,8.9884
2023-04-09T01:30:50.717Z,9.0908
2023-04-09T01:31:54.833Z,7.0124
2023-04-09T01:32:58.805Z,5.5759
2023-04-09T01:34:02.873Z,6.9672
2023-04-09T01:35:06.778Z,8.4031
2023-04-09T01:36:10.676Z,7.7905
2023-04-09T01:37:14.564Z,8.0919
2023-04-09T01:38:18.471Z,9.0082
2023-04-09T01:39:22.604Z,9.2720
2023-04-09T01:40:26.508Z,9.3806
2023-04-09T01:41:30.728Z,7.9097
2023-04-09T01:42:34.617Z,8.3037
2023-04-09T01:43:38.506Z,8.7704
2023-04-09T01:44:42.419Z,7.3189
2023-04-09T01:45:46.327Z,8.6992
2023-04-09T01:46:50.299Z,7.7278
2023-04-09T01:47:54.241Z,9.1194
2023-04-09T01:48:58.361Z,9.5467
2023-04-09T01:50:02.317Z,7.8165
2023-04-09T01:51:06.287Z,8.5085
2023-04-09T01:52:10.192Z,8.7026
2023-04-09T01:53:14.090Z,10.5960
2023-04-09T01:54:17.983Z,8.7105
2023-04-09T01:55:21.885Z,9.3885
2023-04-09T01:56:25.982Z,7.3016
2023-04-09T01:57:29.876Z,7.7345
2023-04-09T01:58:33.781Z,9.3296
2023-04-09T01:59:37.965Z,8.8825
2023-04-09T02:00:41.859Z,9.4841
2023-04-09T02:01:45.833Z,8.6858
2023-04-09T02:02:49.858Z,7.1768
2023-04-09T02:03:53.877Z,8.0092
2023-04-09T02:04:57.777Z,8.5075
2023-04-09T02:05:58.126Z,7.2802
2023-04-09T02:07:02.012Z,9.7395
2023-04-09T02:08:05.913Z,8.4854
2023-04-09T02:09:09.997Z,8.9352
2023-04-09T02:11:18.988Z,8.1984
2023-04-09T02:12:22.866Z,9.3421
2023-04-09T02:13:26.771Z,8.9417
2023-04-09T02:14:30.668Z,9.6270
2023-04-09T02:15:34.585Z,10.5953
2023-04-09T02:16:38.747Z,10.1318
2023-04-09T02:17:42.656Z,9.5132
2023-04-09T02:18:46.779Z,11.3052
2023-04-09T02:19:50.650Z,9.2025
2023-04-09T02:20:54.545Z,8.7248
2023-04-09T02:21:58.437Z,9.1389
2023-04-09T02:23:02.345Z,9.1975
2023-04-09T02:24:06.259Z,9.7736
2023-04-09T02:25:10.172Z,10.4290
2023-04-09T02:26:14.051Z,8.7261
2023-04-09T02:27:18.007Z,10.8131
2023-04-09T02:28:21.874Z,9.6712
2023-04-09T02:29:25.797Z,9.5811
2023-04-09T02:30:29.664Z,9.2023
2023-04-09T02:31:33.866Z,9.3803
2023-04-09T02:32:37.831Z,10.5878
2023-04-09T02:33:41.703Z,8.7098
2023-04-09T02:34:45.601Z,8.9697
2023-04-09T02:35:49.546Z,10.1641
2023-04-09T02:36:53.404Z,8.8213
2023-04-09T02:37:57.318Z,10.2448
2023-04-09T02:39:01.438Z,9.5357
2023-04-09T02:40:05.373Z,8.9903
2023-04-09T02:41:09.257Z,9.8128
2023-04-09T02:42:13.357Z,10.0888
2023-04-09T02:43:17.273Z,9.5559
2023-04-09T02:44:21.146Z,8.7294
2023-04-09T02:45:25.062Z,7.7388
2023-04-09T02:46:29.013Z,7.9440
2023-04-09T02:47:32.968Z,7.8768
2023-04-09T02:48:36.839Z,8.5774
2023-04-09T02:49:40.742Z,10.0501
2023-04-09T02:50:44.664Z,8.4077
2023-04-09T02:51:48.623Z,8.4114
2023-04-09T02:52:52.531Z,10.0068
2023-04-09T02:53:56.732Z,8.9128
2023-04-09T02:55:00.644Z,10.5147
2023-04-09T02:56:04.525Z,9.4156
2023-04-09T02:57:08.437Z,8.4236
2023-04-09T02:58:12.312Z,10.7451
2023-04-09T02:59:16.222Z,9.8467
2023-04-09T03:00:20.117Z,9.6358
2023-04-09T03:01:24.035Z,9.8177
2023-04-09T03:02:28.091Z,8.9125
2023-04-09T03:03:32.098Z,8.9805
2023-04-09T03:04:36.033Z,9.9654
2023-04-09T03:05:39.937Z,10.2419
2023-04-09T03:06:44.053Z,10.5459
2023-04-09T03:07:47.959Z,9.7933
2023-04-09T03:08:52.281Z,9.7619
2023-04-09T03:09:56.306Z,10.8762
2023-04-09T03:11:00.184Z,10.7303
2023-04-09T03:12:04.090Z,10.0351
2023-04-09T03:13:07.982Z,9.9971
2023-04-09T03:14:11.879Z,10.5196
2023-04-09T03:15:15.785Z,10.1171
2023-04-09T03:16:19.724Z,9.5109
2023-04-09T03:17:23.593Z,10.1543
2023-04-09T03:18:27.509Z,9.4333
2023-04-09T03:19:31.395Z,8.8967
2023-04-09T03:20:35.291Z,10.1330
2023-04-09T03:21:39.184Z,9.5556
2023-04-09T03:22:43.089Z,8.8018
2023-04-09T03:23:46.974Z,9.8491
2023-04-09T03:24:50.874Z,10.0213
2023-04-09T03:25:54.774Z,10.8127
2023-04-09T03:26:58.887Z,9.7991
2023-04-09T03:28:02.830Z,9.4173
2023-04-09T03:29:06.690Z,10.2123
2023-04-09T03:30:10.595Z,10.3375
2023-04-09T03:31:14.554Z,11.6548
2023-04-09T03:32:19.174Z,10.2047
2023-04-09T03:33:23.053Z,10.1203
2023-04-09T03:34:26.963Z,11.7259
2023-04-09T03:35:30.884Z,10.4722
2023-04-09T03:36:34.777Z,8.7157
2023-04-09T03:37:38.660Z,9.8514
2023-04-09T03:38:42.576Z,11.1000
2023-04-09T03:39:46.693Z,8.5493
2023-04-09T03:40:50.606Z,8.5189
2023-04-09T03:41:54.710Z,8.6940
2023-04-09T03:42:58.632Z,10.0013
2023-04-09T03:44:02.529Z,9.8367
2023-04-09T03:45:06.424Z,9.7435
2023-04-09T03:46:10.327Z,9.5163
2023-04-09T03:47:14.442Z,11.4510
2023-04-09T03:48:18.342Z,11.4705
2023-04-09T03:49:22.472Z,11.4416
2023-04-09T03:50:26.354Z,10.4122
2023-04-09T03:51:30.265Z,9.6737
2023-04-09T03:52:34.153Z,11.2573
2023-04-09T03:53:38.087Z,10.1464
2023-04-09T03:54:42.291Z,10.1449
2023-04-09T03:55:46.198Z,10.1976
2023-04-09T03:56:50.342Z,9.9174
2023-04-09T03:57:54.247Z,11.2003
2023-04-09T03:58:58.174Z,10.0835
2023-04-09T04:00:02.073Z,9.2627
2023-04-09T04:01:05.954Z,11.2885
2023-04-09T04:02:09.934Z,11.7987
2023-04-09T04:03:13.984Z,10.6646
2023-04-09T04:04:20.468Z,11.4814
2023-04-09T04:05:20.558Z,10.6796
2023-04-09T04:06:24.468Z,10.4615
2023-04-09T04:07:28.363Z,10.7710
2023-04-09T04:08:32.280Z,10.8824
2023-04-09T04:09:36.176Z,12.4534
2023-04-09T04:10:40.084Z,10.0145
2023-04-09T04:11:43.973Z,12.4665
2023-04-09T04:12:47.942Z,10.7318
2023-04-09T04:13:51.820Z,11.4999
2023-04-09T04:14:55.739Z,11.6730
2023-04-09T04:15:59.664Z,10.4436
2023-04-09T04:17:03.761Z,12.7938
2023-04-09T04:18:07.648Z,10.8873
2023-04-09T04:19:11.874Z,13.7914
2023-04-09T04:20:15.752Z,11.2691
2023-04-09T04:21:19.657Z,13.2395
2023-04-09T04:22:26.112Z,11.9600
2023-04-09T04:23:24.909Z,11.7576
2023-04-09T04:24:28.799Z,11.7959
2023-04-09T04:25:32.712Z,14.2049
2023-04-09T04:26:36.612Z,12.5124
2023-04-09T04:27:40.525Z,14.7302
2023-04-09T04:28:44.420Z,14.2857
2023-04-09T04:29:44.515Z,12.5995
2023-04-09T04:30:48.406Z,12.9297
2023-04-09T04:31:52.347Z,12.7542
2023-04-09T04:32:56.240Z,12.3701
2023-04-09T04:34:00.195Z,13.7856
2023-04-09T04:35:04.271Z,12.5087
2023-04-09T04:36:08.166Z,15.0345
2023-04-09T04:37:12.292Z,11.5832
2023-04-09T04:38:16.181Z,13.0993
2023-04-09T04:39:20.095Z,17.0262
2023-04-09T04:40:23.960Z,14.6529
2023-04-09T04:41:27.869Z,14.8264
2023-04-09T04:42:31.961Z,12.1840
2023-04-09T04:43:35.867Z,13.4874
2023-04-09T04:44:39.979Z,12.4999
2023-04-09T04:45:43.926Z,13.3882
2023-04-09T04:46:47.799Z,13.3521
2023-04-09T04:47:51.716Z,13.2141
2023-04-09T04:48:55.587Z,11.7938
2023-04-09T04:49:59.501Z,11.3660
2023-04-09T04:51:03.373Z,12.3256
2023-04-09T04:52:07.614Z,12.0791
2023-04-09T04:53:11.499Z,11.6728
2023-04-09T04:54:15.399Z,12.4854
2023-04-09T04:55:19.289Z,12.2716
2023-04-09T04:56:23.194Z,12.3739
2023-04-09T04:57:27.085Z,11.0249
2023-04-09T04:58:31.005Z,14.0033
2023-04-09T04:59:35.111Z,14.6387
2023-04-09T05:00:39.020Z,12.6080
2023-04-09T05:01:43.015Z,13.1005
2023-04-09T05:02:47.263Z,13.8213
2023-04-09T05:03:51.216Z,12.5104
2023-04-09T05:04:55.192Z,13.6403
2023-04-09T05:05:59.078Z,12.5374
2023-04-09T05:07:02.958Z,13.0488
2023-04-09T05:08:06.872Z,14.1432
2023-04-09T05:09:10.765Z,12.8495
2023-04-09T05:10:14.660Z,14.1949
2023-04-09T05:11:18.536Z,13.0319
2023-04-09T05:12:22.690Z,13.6973
2023-04-09T05:13:26.572Z,11.8609
2023-04-09T05:14:30.484Z,12.7926
2023-04-09T05:15:34.361Z,10.4833
2023-04-09T05:16:38.291Z,9.2850
2023-04-09T05:17:42.203Z,9.9682
2023-04-09T05:18:46.106Z,10.4202
2023-04-09T05:19:49.999Z,7.9153
2023-04-09T05:20:53.912Z,9.4210
2023-04-09T05:21:58.004Z,8.9286
2023-04-09T05:23:01.930Z,9.4088
2023-04-09T05:24:05.818Z,8.7287
2023-04-09T05:25:09.701Z,8.1827
2023-04-09T05:26:13.590Z,9.0082
2023-04-09T05:27:17.502Z,9.7334
2023-04-09T05:28:21.401Z,10.1825
2023-04-09T05:29:26.890Z,9.0046
2023-04-09T05:30:30.800Z,9.4746
2023-04-09T05:31:34.681Z,9.9881
2023-04-09T05:32:38.629Z,10.0498
2023-04-09T05:33:42.487Z,8.2830
2023-04-09T05:34:46.395Z,9.4183
2023-04-09T05:35:50.301Z,8.3539
2023-04-09T05:36:54.208Z,7.5396
2023-04-09T05:37:58.293Z,8.8339
2023-04-09T05:39:02.196Z,10.4756
2023-04-09T05:40:06.414Z,8.3520
2023-04-09T05:41:10.314Z,8.8347
2023-04-09T05:42:14.235Z,8.9442
2023-04-09T05:43:18.105Z,8.2629
2023-04-09T05:44:22.007Z,9.6979
2023-04-09T05:45:25.901Z,9.1282
2023-04-09T05:46:29.911Z,8.0618
2023-04-09T05:47:33.886Z,9.1821
2023-04-09T05:48:37.772Z,9.1520
2023-04-09T05:49:41.640Z,7.8545
2023-04-09T05:50:54.475Z,8.6315
2023-04-09T05:51:50.026Z,7.4133
2023-04-09T05:52:53.934Z,7.9141
2023-04-09T05:53:57.820Z,7.0266
2023-04-09T05:55:01.766Z,8.3361
2023-04-09T05:56:05.609Z,7.9823
2023-04-09T05:57:09.760Z,9.6311
2023-04-09T05:58:13.637Z,8.3834
2023-04-09T05:59:17.536Z,7.1318
2023-04-09T06:00:21.637Z,8.6689
2023-04-09T06:01:25.548Z,8.6422
2023-04-09T06:02:29.485Z,8.6933
2023-04-09T06:03:33.470Z,8.6271
2023-04-09T06:04:37.433Z,9.0303
2023-04-09T06:05:41.330Z,8.9819
2023-04-09T06:06:45.205Z,8.5996
2023-04-09T06:07:49.120Z,9.0564
2023-04-09T06:08:53.014Z,8.2030
2023-04-09T06:09:56.910Z,8.2156
2023-04-09T06:11:00.815Z,7.3304
2023-04-09T06:12:04.754Z,8.4899
2023-04-09T06:13:08.600Z,8.3970
2023-04-09T06:14:12.509Z,8.4374
2023-04-09T06:15:16.398Z,7.6914
2023-04-09T06:16:20.335Z,10.2887
2023-04-09T06:17:20.568Z,9.3768
2023-04-09T06:18:24.440Z,7.8276
2023-04-09T06:19:28.345Z,9.0862
2023-04-09T06:20:32.235Z,7.8675
2023-04-09T06:21:36.131Z,8.4630
2023-04-09T06:22:40.012Z,7.4608
2023-04-09T06:23:43.900Z,7.4850
2023-04-09T06:24:48.132Z,9.1092
2023-04-09T06:25:52.056Z,7.3525
2023-04-09T06:26:55.946Z,8.5281
2023-04-09T06:27:59.827Z,7.2150
2023-04-09T06:29:03.695Z,8.5150
2023-04-09T06:30:07.626Z,8.3112
2023-04-09T06:31:11.537Z,8.3332
2023-04-09T06:32:15.624Z,7.9978
2023-04-09T06:33:19.595Z,9.7502
2023-04-09T06:34:23.493Z,8.7495
2023-04-09T06:35:27.399Z,8.7207
2023-04-09T06:36:31.295Z,8.0149
2023-04-09T06:37:35.192Z,7.8130
2023-04-09T06:38:39.086Z,7.3186
2023-04-09T06:39:50.553Z,8.0220
2023-04-09T06:40:47.480Z,7.1446
2023-04-09T06:41:51.373Z,6.8650
2023-04-09T06:42:55.262Z,7.7887
2023-04-09T06:43:59.145Z,8.0833
2023-04-09T06:45:03.060Z,8.3246
2023-04-09T06:46:06.958Z,7.7973
2023-04-09T06:47:10.850Z,9.2618
2023-04-09T06:48:14.951Z,8.6824
2023-04-09T06:49:18.848Z,7.4964
2023-04-09T06:50:22.978Z,6.8057
2023-04-09T06:51:26.862Z,8.2647
2023-04-09T06:52:30.775Z,8.9853
2023-04-09T06:53:34.743Z,8.6908
2023-04-09T06:54:38.594Z,8.0138
2023-04-09T06:55:42.486Z,7.7841
2023-04-09T06:56:46.380Z,8.8092
2023-04-09T06:57:50.583Z,7.7376
2023-04-09T06:58:54.489Z,7.7600
2023-04-09T06:59:58.374Z,6.9479
2023-04-09T07:01:02.298Z,7.5815
2023-04-09T07:02:06.285Z,7.5682
2023-04-09T07:03:10.253Z,7.1242
2023-04-09T07:04:14.201Z,8.1050
2023-04-09T07:05:18.323Z,7.8934
2023-04-09T07:06:22.198Z,8.9658
2023-04-09T07:07:26.315Z,7.7306
2023-04-09T07:08:30.229Z,8.0930
2023-04-09T07:09:34.131Z,8.2258
2023-04-09T07:10:38.015Z,6.8861
2023-04-09T07:11:41.894Z,7.9961
2023-04-09T07:12:45.809Z,6.8570
2023-04-09T07:13:49.692Z,8.0207
2023-04-09T07:14:53.591Z,7.4197
2023-04-09T07:15:57.508Z,9.2442
2023-04-09T07:17:01.428Z,8.2512
2023-04-09T07:18:05.309Z,7.6657
2023-04-09T07:19:09.217Z,7.0806
2023-04-09T07:20:13.314Z,7.5921
2023-04-09T07:21:17.236Z,7.1764
2023-04-09T07:22:21.114Z,8.8483
2023-04-09T07:23:25.021Z,7.8522
2023-04-09T07:24:28.905Z,9.3342
2023-04-09T07:25:32.858Z,8.1828
2023-04-09T07:26:36.706Z,7.9299
2023-04-09T07:27:40.616Z,7.2485
2023-04-09T07:28:44.503Z,8.2553
2023-04-09T07:29:48.429Z,7.8932
2023-04-09T07:30:52.316Z,8.2074
2023-04-09T07:31:56.244Z,9.1690
2023-04-09T07:33:00.520Z,6.5846
2023-04-09T07:34:04.423Z,8.1195
2023-04-09T07:35:08.307Z,7.3657
2023-04-09T07:36:12.463Z,7.3303
2023-04-09T07:37:16.379Z,9.0419
2023-04-09T07:38:20.281Z,8.7370
2023-04-09T07:39:24.174Z,6.4954
2023-04-09T07:40:24.685Z,7.1213
2023-04-09T07:41:28.590Z,7.9283
2023-04-09T07:42:32.698Z,8.6227
2023-04-09T07:43:36.589Z,7.9084
2023-04-09T07:44:40.500Z,7.5570
2023-04-09T07:45:44.411Z,8.0771
2023-04-09T07:46:48.346Z,8.1223
2023-04-09T07:47:52.251Z,8.6097
2023-04-09T07:48:56.137Z,7.7660
2023-04-09T07:50:00.060Z,8.2770
2023-04-09T07:51:04.170Z,8.3946
2023-04-09T07:52:08.083Z,8.5685
2023-04-09T07:53:11.964Z,9.3496
2023-04-09T07:54:15.862Z,8.2136
2023-04-09T07:55:20.022Z,7.9356
2023-04-09T07:56:23.935Z,8.8255
2023-04-09T07:57:27.821Z,7.8020
2023-04-09T07:58:31.714Z,8.0783
2023-04-09T07:59:35.608Z,8.2837
2023-04-09T08:00:36.050Z,8.1983
2023-04-09T08:01:39.968Z,7.3745
2023-04-09T08:02:43.970Z,8.2508
2023-04-09T08:03:48.102Z,8.1009
2023-04-09T08:04:52.109Z,8.0134
2023-04-09T08:05:52.612Z,8.3520
2023-04-09T08:06:56.505Z,8.8913
2023-04-09T08:08:00.425Z,8.3152
2023-04-09T08:09:04.308Z,8.5508
2023-04-09T08:10:08.206Z,9.7481
2023-04-09T08:11:12.102Z,9.2160
2023-04-09T08:12:16.025Z,6.8057
2023-04-09T08:13:19.901Z,8.5826
2023-04-09T08:14:23.807Z,8.0561
2023-04-09T08:15:27.775Z,8.4367
2023-04-09T08:16:31.662Z,6.8345
2023-04-09T08:17:35.540Z,8.7172
2023-04-09T08:18:39.632Z,10.1828
2023-04-09T08:19:43.534Z,9.9049
2023-04-09T08:20:47.647Z,11.0699
2023-04-09T08:21:51.554Z,8.3311
2023-04-09T08:22:55.443Z,8.7542
2023-04-09T08:23:59.358Z,9.5996
2023-04-09T08:25:03.250Z,10.3540
2023-04-09T08:26:07.136Z,9.5866
2023-04-09T08:27:11.036Z,10.0814
2023-04-09T08:28:14.966Z,9.3262
2023-04-09T08:29:18.834Z,9.2457
2023-04-09T08:30:22.782Z,9.5982
2023-04-09T08:31:26.681Z,11.0882
2023-04-09T08:32:30.628Z,9.3592
2023-04-09T08:33:34.498Z,9.1687
2023-04-09T08:34:38.410Z,9.7846
2023-04-09T08:35:42.299Z,9.6450
2023-04-09T08:36:46.249Z,9.2227
2023-04-09T08:37:50.100Z,9.9608
2023-04-09T08:38:54.099Z,9.2806
2023-04-09T08:39:58.122Z,10.1381
2023-04-09T08:41:02.044Z,10.2441
2023-04-09T08:42:05.939Z,9.0336
2023-04-09T08:43:10.067Z,8.7081
2023-04-09T08:44:13.961Z,8.3200
2023-04-09T08:45:17.874Z,11.4263
2023-04-09T08:46:21.779Z,10.3494
2023-04-09T08:47:25.717Z,8.6994
2023-04-09T08:48:29.683Z,8.5590
2023-04-09T08:49:33.576Z,11.2747
2023-04-09T08:50:37.806Z,11.7958
2023-04-09T08:51:41.696Z,10.7708
2023-04-09T08:52:45.600Z,9.7723
2023-04-09T08:53:49.721Z,10.5307
2023-04-09T08:54:53.650Z,10.0360
2023-04-09T08:55:57.550Z,10.7932
2023-04-09T08:57:01.466Z,9.8242
2023-04-09T08:58:05.356Z,8.7603
2023-04-09T08:59:09.260Z,9.2888
2023-04-09T09:00:13.148Z,10.7708
2023-04-09T09:01:17.084Z,10.0009
2023-04-09T09:02:21.035Z,9.9515
2023-04-09T09:03:25.040Z,10.9759
2023-04-09T09:04:29.025Z,9.6044
2023-04-09T09:05:32.940Z,9.7910
2023-04-09T09:06:36.843Z,9.9802
2023-04-09T09:07:40.736Z,9.0334
2023-04-09T09:08:44.629Z,9.8957
2023-04-09T09:09:48.529Z,10.5726
2023-04-09T09:10:52.428Z,8.5764
2023-04-09T09:11:56.336Z,8.5701
2023-04-09T09:13:00.282Z,10.1314
2023-04-09T09:14:04.195Z,9.1011
2023-04-09T09:15:08.093Z,10.5165
2023-04-09T09:16:12.053Z,9.5523
2023-04-09T09:17:15.947Z,11.1403
2023-04-09T09:18:19.850Z,11.3295
2023-04-09T09:19:23.751Z,11.0612
2023-04-09T09:20:27.803Z,9.4028
2023-04-09T09:21:31.758Z,9.4252
2023-04-09T09:22:35.644Z,8.8768
2023-04-09T09:23:39.553Z,9.3390
2023-04-09T09:24:43.450Z,9.8985
2023-04-09T09:25:47.366Z,9.5055
2023-04-09T09:26:51.270Z,8.5730
2023-04-09T09:27:55.422Z,8.6004
2023-04-09T09:28:59.328Z,8.5891
2023-04-09T09:30:03.208Z,10.4715
2023-04-09T09:31:07.119Z,8.8981
2023-04-09T09:32:10.991Z,8.2940
2023-04-09T09:33:14.895Z,8.8506
2023-04-09T09:34:18.821Z,8.7380
2023-04-09T09:35:22.782Z,11.1255
2023-04-09T09:36:26.663Z,8.8918
2023-04-09T09:37:30.562Z,9.9575
2023-04-09T09:38:34.441Z,8.0494
2023-04-09T09:39:38.352Z,9.0312
2023-04-09T09:40:42.240Z,8.8386
2023-04-09T09:41:46.148Z,8.8103
2023-04-09T09:42:50.047Z,9.3118
2023-04-09T09:43:53.946Z,7.9330
2023-04-09T09:44:57.834Z,9.6794
2023-04-09T09:46:02.002Z,9.6534
2023-04-09T09:47:05.931Z,10.4574
2023-04-09T09:48:10.133Z,8.9851
2023-04-09T09:49:14.021Z,8.5540
2023-04-09T09:50:18.017Z,8.3915
2023-04-09T09:51:22.024Z,10.0616
2023-04-09T09:52:26.733Z,8.9912
2023-04-09T09:53:30.647Z,8.2248
2023-04-09T09:54:34.546Z,10.3179
2023-04-09T09:55:38.455Z,9.1769
2023-04-09T09:56:42.365Z,9.3390
2023-04-09T09:57:46.284Z,10.1555
2023-04-09T09:58:50.651Z,8.7394
2023-04-09T09:59:54.688Z,8.5234
2023-04-09T10:00:58.632Z,8.1186
2023-04-09T10:02:02.572Z,7.6306
2023-04-09T10:03:06.869Z,9.3650
2023-04-09T10:04:10.814Z,8.9670
2023-04-09T10:05:14.681Z,8.9352
2023-04-09T10:06:18.577Z,9.1244
2023-04-09T10:07:22.501Z,9.5503
2023-04-09T10:08:26.463Z,8.6785
2023-04-09T10:09:30.401Z,8.8450
2023-04-09T10:10:34.296Z,8.9430
2023-04-09T10:11:38.204Z,8.3585
2023-04-09T10:12:42.116Z,9.9195
2023-04-09T10:13:46.001Z,8.9437
2023-04-09T10:14:49.906Z,10.5726
2023-04-09T10:15:53.897Z,9.0093
2023-04-09T10:16:57.794Z,8.3470
2023-04-09T10:18:01.704Z,9.3582
2023-04-09T10:19:05.593Z,10.0720
2023-04-09T10:20:09.482Z,8.0276
2023-04-09T10:21:13.379Z,7.9913
2023-04-09T10:22:17.261Z,7.2169
2023-04-09T10:23:21.168Z,9.0925
2023-04-09T10:24:25.061Z,10.5371
2023-04-09T10:25:28.961Z,9.1618
2023-04-09T10:26:32.860Z,10.1823
2023-04-09T10:27:36.758Z,10.6040
2023-04-09T10:28:40.655Z,9.3851
2023-04-09T10:29:44.555Z,8.5365
2023-04-09T10:30:48.688Z,8.9909
2023-04-09T10:31:52.574Z,10.2672
2023-04-09T10:32:56.536Z,9.0449
2023-04-09T10:34:00.394Z,8.5355
2023-04-09T10:35:04.326Z,10.1395
2023-04-09T10:36:08.194Z,9.4644
2023-04-09T10:37:12.093Z,10.2971
2023-04-09T10:38:16.013Z,10.0265
2023-04-09T10:39:19.897Z,8.8641
2023-04-09T10:40:23.776Z,8.1089
2023-04-09T10:41:27.718Z,8.1142
2023-04-09T10:42:31.583Z,8.8318
2023-04-09T10:43:35.497Z,9.6533
2023-04-09T10:44:39.378Z,8.3640
2023-04-09T10:45:43.285Z,9.3013
2023-04-09T10:46:47.221Z,9.2628
2023-04-09T10:47:51.169Z,10.3135
2023-04-09T10:48:55.020Z,9.1152
2023-04-09T10:49:58.928Z,10.5432
2023-04-09T10:51:02.817Z,8.5544
2023-04-09T10:52:07.123Z,9.5414
2023-04-09T10:53:07.159Z,9.5368
2023-04-09T10:54:11.084Z,8.8772
2023-04-09T10:55:14.972Z,7.2152
2023-04-09T10:56:18.877Z,6.8315
2023-04-09T10:57:22.762Z,7.8943
2023-04-09T10:58:26.657Z,6.7574
2023-04-09T10:59:30.549Z,8.0108
2023-04-09T11:00:34.463Z,7.3178
2023-04-09T11:01:38.467Z,7.0011
2023-04-09T11:02:42.572Z,9.3303
2023-04-09T11:03:46.552Z,9.0768
2023-04-09T11:04:50.477Z,9.0541
2023-04-09T11:05:54.353Z,7.9030
2023-04-09T11:06:58.233Z,8.4645
2023-04-09T11:08:02.128Z,8.2937
2023-04-09T11:09:02.539Z,8.3132
2023-04-09T11:10:06.452Z,8.0980
2023-04-09T11:11:10.336Z,6.3044
2023-04-09T11:12:14.248Z,7.3956
2023-04-09T11:13:14.458Z,7.1584
2023-04-09T11:14:18.366Z,7.6912
2023-04-09T11:15:22.253Z,8.7405
2023-04-09T11:16:27.883Z,8.1910
2023-04-09T11:17:27.582Z,6.9578
2023-04-09T11:18:27.907Z,8.2636
2023-04-09T11:19:31.787Z,7.7777
2023-04-09T11:20:35.725Z,8.3604
2023-04-09T11:21:39.578Z,8.2249
2023-04-09T11:22:43.488Z,6.6645
2023-04-09T11:23:47.597Z,7.1598
2023-04-09T11:24:51.508Z,7.3810
2023-04-09T11:25:55.614Z,8.0826
2023-04-09T11:26:59.516Z,7.6120
2023-04-09T11:28:03.406Z,8.4228
2023-04-09T11:29:07.305Z,7.8912
2023-04-09T11:30:11.243Z,7.2778
2023-04-09T11:31:15.151Z,6.6070
2023-04-09T11:32:19.000Z,7.7755
2023-04-09T11:33:23.139Z,6.7910
2023-04-09T11:34:27.021Z,7.0832
2023-04-09T11:35:30.984Z,7.7884
2023-04-09T11:36:35.088Z,8.3596
2023-04-09T11:37:38.988Z,7.5381
2023-04-09T11:38:42.881Z,8.1997
2023-04-09T11:39:46.779Z,6.8637
2023-04-09T11:40:50.901Z,7.6996
2023-04-09T11:41:54.821Z,7.3220
2023-04-09T11:42:58.686Z,6.2294
2023-04-09T11:44:02.577Z,6.1111
2023-04-09T11:45:06.496Z,7.8510
2023-04-09T11:46:10.377Z,7.7418
2023-04-09T11:47:14.285Z,7.1258
2023-04-09T11:48:18.228Z,6.4950
2023-04-09T11:49:22.152Z,7.6513
2023-04-09T11:50:26.025Z,7.9838
2023-04-09T11:51:29.928Z,7.1896
2023-04-09T11:52:33.813Z,6.5899
2023-04-09T11:53:37.726Z,6.9609
2023-04-09T11:54:41.624Z,7.2920
2023-04-09T11:55:45.618Z,6.6246
2023-04-09T11:56:49.764Z,7.8229
2023-04-09T11:57:53.679Z,7.3578
2023-04-09T11:58:57.575Z,7.2220
2023-04-09T12:00:03.806Z,5.1651
2023-04-09T12:01:03.897Z,6.3294
2023-04-09T12:02:07.885Z,6.3060
2023-04-09T12:03:12.135Z,6.7719
2023-04-09T12:04:16.587Z,7.8855
2023-04-09T12:05:20.549Z,6.6205
2023-04-09T12:06:24.558Z,6.6359
2023-04-09T12:07:28.437Z,7.1338
2023-04-09T12:08:32.560Z,6.6259
2023-04-09T12:09:36.469Z,7.3461
2023-04-09T12:10:40.339Z,6.5724
2023-04-09T12:11:44.220Z,6.9816
2023-04-09T12:12:48.144Z,7.2351
2023-04-09T12:13:52.033Z,7.8632
2023-04-09T12:14:55.920Z,5.7182
2023-04-09T12:16:00.050Z,7.7980
2023-04-09T12:17:03.967Z,6.7876
2023-04-09T12:18:07.932Z,7.8588
2023-04-09T12:19:12.044Z,7.2704
2023-04-09T12:20:15.954Z,6.6158
2023-04-09T12:21:19.836Z,7.5358
2023-04-09T12:22:23.742Z,7.3935
2023-04-09T12:23:27.641Z,6.0384
2023-04-09T12:24:31.546Z,6.7091
2023-04-09T12:25:35.460Z,6.8251
2023-04-09T12:26:39.338Z,8.4531
2023-04-09T12:27:43.223Z,6.6604
2023-04-09T12:28:47.137Z,5.1285
2023-04-09T12:29:51.019Z,6.1876
2023-04-09T12:30:54.920Z,8.1508
2023-04-09T12:31:58.817Z,7.0022
2023-04-09T12:33:02.735Z,7.4511
2023-04-09T12:34:06.627Z,6.3700
2023-04-09T12:35:10.508Z,6.4699
2023-04-09T12:36:14.436Z,6.6299
2023-04-09T12:37:18.295Z,6.3928
2023-04-09T12:38:22.201Z,5.9578
2023-04-09T12:39:26.106Z,6.2995
2023-04-09T12:40:30.091Z,5.6841
2023-04-09T12:41:34.399Z,7.0538
2023-04-09T12:42:38.314Z,6.5235
2023-04-09T12:43:43.943Z,6.1323
2023-04-09T12:44:42.585Z,6.1840
2023-04-09T12:45:46.483Z,5.4857
2023-04-09T12:46:50.386Z,7.3799
2023-04-09T12:47:54.278Z,5.9057
2023-04-09T12:48:58.359Z,5.2791
2023-04-09T12:50:02.284Z,5.9401
2023-04-09T12:51:06.147Z,5.1033
2023-04-09T12:52:10.055Z,5.6373
2023-04-09T12:53:13.943Z,6.7472
2023-04-09T12:54:17.845Z,6.0937
2023-04-09T12:55:21.733Z,6.0196
2023-04-09T12:56:26.249Z,6.9007
2023-04-09T12:57:30.836Z,6.2182
2023-04-09T12:58:34.729Z,6.2039
2023-04-09T12:59:38.824Z,6.9749
2023-04-09T13:00:42.745Z,6.7445
2023-04-09T13:01:43.534Z,5.9053
2023-04-09T13:02:47.749Z,6.0525
2023-04-09T13:03:52.124Z,5.3672
2023-04-09T13:04:56.357Z,5.8014
2023-04-09T13:06:00.239Z,6.1884
2023-04-09T13:07:04.150Z,5.9367
2023-04-09T13:08:08.039Z,7.3507
2023-04-09T13:09:12.161Z,5.9870
2023-04-09T13:10:16.041Z,6.8185
2023-04-09T13:11:19.949Z,6.1478
2023-04-09T13:12:23.836Z,5.7664